Time;durP1;ratioP1;P1;durP2;ratioP2;P2;SDS_P1;SDS_P2;PMS_P1;PMS_P2;Temp;Humidity;BMP_temperature;BMP_pressure;BME280_temperature;BME280_humidity;BME280_pressure;Samples;Min_cycle;Max_cycle;Signal;HPM_P1;HPM_P2
2023/01/26 00:00:27;;;;;;;43.97;25.23;;;;;;;-0.19;100.00;97236.16;5014869;28;20241;-62
2023/01/26 00:02:53;;;;;;;44.80;24.90;;;;;;;-0.31;100.00;97233.94;5012761;28;20250;-62
2023/01/26 00:05:18;;;;;;;39.17;24.80;;;;;;;-0.12;100.00;97234.63;5014845;28;20262;-61
2023/01/26 00:07:44;;;;;;;51.30;27.63;;;;;;;-0.12;100.00;97228.66;5014659;28;20172;-61
2023/01/26 00:10:11;;;;;;;47.37;26.13;;;;;;;-0.22;100.00;97215.84;5014887;28;20258;-62
2023/01/26 00:12:37;;;;;;;47.53;27.03;;;;;;;-0.08;100.00;97217.09;5014753;28;20202;-62
2023/01/26 00:15:02;;;;;;;50.13;26.53;;;;;;;0.12;100.00;97215.13;4997387;28;20549;-62
2023/01/26 00:17:28;;;;;;;53.80;27.80;;;;;;;0.16;100.00;97214.69;4997619;28;20179;-62
2023/01/26 00:19:55;;;;;;;53.27;28.40;;;;;;;0.27;100.00;97204.13;5014539;28;20175;-60
2023/01/26 00:22:21;;;;;;;53.03;28.10;;;;;;;0.06;100.00;97198.50;5014593;28;20179;-62
2023/01/26 00:24:47;;;;;;;51.77;29.40;;;;;;;0.04;100.00;97200.44;5014543;28;20253;-62
2023/01/26 00:27:12;;;;;;;50.83;27.73;;;;;;;-0.11;100.00;97192.41;5015234;28;20175;-62
2023/01/26 00:29:38;;;;;;;50.67;28.40;;;;;;;-0.10;100.00;97188.06;5015278;28;20175;-61
2023/01/26 00:32:04;;;;;;;58.57;29.13;;;;;;;0.05;100.00;97191.75;5014700;28;20183;-62
2023/01/26 00:34:29;;;;;;;54.17;28.47;;;;;;;0.19;100.00;97180.06;5014244;28;20211;-61
2023/01/26 00:36:55;;;;;;;50.50;26.97;;;;;;;0.22;100.00;97182.34;5014161;28;20225;-62
2023/01/26 00:39:20;;;;;;;56.03;28.20;;;;;;;0.15;100.00;97178.75;5014426;28;20182;-62
2023/01/26 00:44:31;;;;;;;49.63;27.73;;;;;;;-0.19;100.00;97173.53;5007686;28;20230;-62
2023/01/26 00:46:56;;;;;;;51.80;28.00;;;;;;;0.21;100.00;97173.81;5014587;28;20651;-64
2023/01/26 00:49:22;;;;;;;52.40;28.47;;;;;;;0.34;100.00;97170.78;5013881;28;20175;-64
2023/01/26 00:51:47;;;;;;;53.30;28.97;;;;;;;0.50;100.00;97175.25;5014417;28;20803;-62
2023/01/26 00:54:13;;;;;;;48.10;26.67;;;;;;;0.51;100.00;97169.09;5014348;28;20632;-63
2023/01/26 00:56:38;;;;;;;45.70;26.13;;;;;;;0.31;100.00;97153.06;5014498;28;20182;-63
2023/01/26 00:59:05;;;;;;;51.53;27.43;;;;;;;0.28;100.00;97154.16;5013357;28;20665;-62
2023/01/26 01:01:31;;;;;;;48.73;26.13;;;;;;;0.15;100.00;97158.94;5012329;28;20675;-62
2023/01/26 01:03:56;;;;;;;53.03;27.33;;;;;;;0.13;100.00;97165.22;5014574;28;20227;-64
2023/01/26 01:06:23;;;;;;;54.90;28.03;;;;;;;-0.10;100.00;97152.81;5014141;28;20262;-61
2023/01/26 01:08:48;;;;;;;50.90;27.40;;;;;;;-0.14;100.00;97148.94;5014333;28;20182;-61
2023/01/26 01:11:14;;;;;;;58.03;28.57;;;;;;;-0.07;100.00;97149.16;5014108;28;20180;-61
2023/01/26 01:13:39;;;;;;;49.37;25.83;;;;;;;-0.18;100.00;97149.41;5014050;28;20215;-61
2023/01/26 01:16:10;;;;;;;56.33;27.57;;;;;;;-0.02;100.00;97152.91;5014048;28;20203;-61
2023/01/26 01:18:35;;;;;;;55.77;27.70;;;;;;;-0.12;100.00;97146.22;5014152;28;20257;-62
2023/01/26 01:21:12;;;;;;;51.33;27.97;;;;;;;-0.09;100.00;97145.91;5013777;28;20364;-62
2023/01/26 01:23:38;;;;;;;67.60;26.17;;;;;;;-0.21;100.00;97147.09;5013753;28;20195;-62
2023/01/26 01:26:05;;;;;;;66.80;28.07;;;;;;;-0.17;100.00;97156.94;5013681;28;20217;-62
2023/01/26 01:28:32;;;;;;;54.97;26.83;;;;;;;-0.08;100.00;97155.25;5013977;28;20191;-64
2023/01/26 01:30:57;;;;;;;52.17;27.00;;;;;;;0.04;100.00;97148.09;5014487;28;20185;-62
2023/01/26 01:33:23;;;;;;;53.27;27.73;;;;;;;0.10;100.00;97152.63;5014282;28;20695;-61
2023/01/26 01:35:59;;;;;;;53.13;28.23;;;;;;;0.34;100.00;97145.81;5013292;28;20592;-61
2023/01/26 01:38:25;;;;;;;51.33;27.40;;;;;;;0.05;100.00;97144.56;5013350;28;20233;-62
2023/01/26 01:40:51;;;;;;;47.83;26.97;;;;;;;-0.02;100.00;97140.00;5013551;28;20175;-61
2023/01/26 01:43:17;;;;;;;51.20;27.40;;;;;;;-0.11;100.00;97143.47;5013490;28;20191;-61
2023/01/26 01:45:45;;;;;;;52.33;26.00;;;;;;;-0.27;100.00;97140.78;5013516;28;20612;-63
2023/01/26 01:48:23;;;;;;;46.73;26.73;;;;;;;-0.33;100.00;97143.16;5013355;28;20195;-62
2023/01/26 01:50:52;;;;;;;52.33;26.57;;;;;;;-0.24;100.00;97127.63;5013371;28;20179;-64
2023/01/26 01:53:28;;;;;;;55.53;27.33;;;;;;;-0.12;100.00;97135.91;5013144;28;20707;-62
2023/01/26 01:55:58;;;;;;;51.43;26.07;;;;;;;-0.30;100.00;97132.56;5013354;28;20655;-61
2023/01/26 01:58:28;;;;;;;60.23;27.27;;;;;;;-0.20;100.00;97135.84;5012744;28;20187;-61
2023/01/26 02:00:54;;;;;;;56.63;26.80;;;;;;;-0.16;100.00;97126.84;5011410;28;20250;-62
2023/01/26 02:03:21;;;;;;;49.50;25.67;;;;;;;-0.19;100.00;97129.75;5012331;28;20207;-64
2023/01/26 02:06:17;;;;;;;53.20;25.90;;;;;;;-0.18;100.00;97129.59;5012585;28;20171;-62
2023/01/26 02:08:46;;;;;;;52.87;26.43;;;;;;;-0.26;100.00;97126.16;5010602;28;20266;-61
2023/01/26 02:11:15;;;;;;;49.50;25.77;;;;;;;-0.10;100.00;97126.25;4995998;28;20175;-62
2023/01/26 02:13:43;;;;;;;51.47;25.83;;;;;;;-0.07;100.00;97119.06;4995362;28;20693;-61
2023/01/26 02:16:09;;;;;;;70.23;25.37;;;;;;;-0.39;100.00;97125.75;5013044;28;20183;-62
2023/01/26 02:18:34;;;;;;;52.97;25.37;;;;;;;-0.22;100.00;97114.56;5012914;28;20186;-62
2023/01/26 02:21:05;;;;;;;48.27;25.10;;;;;;;-0.09;100.00;97115.00;5012593;28;20186;-61
2023/01/26 02:23:51;;;;;;;177.13;27.27;;;;;;;-0.20;100.00;97115.25;5012778;28;20195;-62
2023/01/26 02:26:31;;;;;;;56.70;25.03;;;;;;;-0.40;100.00;97103.53;4995400;28;20183;-61
2023/01/26 02:28:57;;;;;;;55.03;23.40;;;;;;;-0.46;100.00;97104.94;5013222;28;20515;-63
2023/01/26 02:31:24;;;;;;;79.57;27.43;;;;;;;-0.31;100.00;97103.44;5013045;28;20238;-63
2023/01/26 02:33:49;;;;;;;78.77;25.97;;;;;;;-0.44;100.00;97105.59;5013014;28;20218;-62
2023/01/26 02:36:26;;;;;;;52.20;24.50;;;;;;;-0.58;100.00;97106.13;5012710;28;20185;-65
2023/01/26 02:38:57;;;;;;;116.53;24.83;;;;;;;-0.59;100.00;97099.38;5011822;28;20181;-63
2023/01/26 02:44:11;;;;;;;54.70;24.60;;;;;;;-0.51;100.00;97105.41;5012422;28;20202;-63
2023/01/26 02:46:37;;;;;;;65.70;26.77;;;;;;;-0.66;100.00;97096.56;5012688;28;20182;-64
2023/01/26 02:51:46;;;;;;;76.30;27.10;;;;;;;-0.46;100.00;97085.16;5014068;28;20613;-62
2023/01/26 02:55:21;;;;;;;57.70;26.63;;;;;;;-0.55;100.00;97091.19;4994997;28;20293;-61
2023/01/26 02:56:57;;;;;;;57.00;25.43;;;;;;;-0.39;100.00;97092.28;5011875;28;20221;-62
2023/01/26 02:59:22;;;;;;;50.63;25.70;;;;;;;-0.18;100.00;97085.00;5011961;28;20218;-63
2023/01/26 03:01:52;;;;;;;52.90;25.57;;;;;;;-0.27;100.00;97085.91;5010212;28;20223;-65
2023/01/26 03:04:17;;;;;;;57.53;26.40;;;;;;;-0.18;100.00;97080.66;5012742;28;20601;-64
2023/01/26 03:06:43;;;;;;;60.03;27.40;;;;;;;-0.01;100.00;97084.97;5014135;28;20225;-64
2023/01/26 03:09:08;;;;;;;50.80;25.50;;;;;;;-0.09;100.00;97081.50;5017075;28;20205;-64
2023/01/26 03:11:40;;;;;;;59.30;25.60;;;;;;;-0.10;100.00;97080.69;5017229;28;20214;-63
2023/01/26 03:14:10;;;;;;;53.77;26.43;;;;;;;-0.28;100.00;97076.59;5016621;28;20674;-65
2023/01/26 03:16:36;;;;;;;85.07;26.97;;;;;;;-0.17;100.00;97077.09;5016111;28;20186;-63
2023/01/26 03:27:26;;;;;;;43.57;22.70;;;;;;;-0.43;100.00;97056.53;5015835;28;20651;-61
2023/01/26 03:29:52;;;;;;;61.33;21.67;;;;;;;-0.39;100.00;97053.66;5016103;28;20171;-61
2023/01/26 03:32:17;;;;;;;49.03;22.77;;;;;;;-0.40;100.00;97050.28;5015883;28;20706;-61
2023/01/26 03:34:43;;;;;;;41.93;21.97;;;;;;;-0.36;100.00;97053.34;5015559;28;20203;-63
2023/01/26 03:37:09;;;;;;;43.07;22.40;;;;;;;-0.31;100.00;97044.22;4997645;28;20175;-62
2023/01/26 03:56:17;;;;;;;48.10;23.67;;;;;;;-0.38;100.00;97052.69;5015804;28;20548;-64
2023/01/26 03:58:44;;;;;;;44.10;20.80;;;;;;;-0.39;100.00;97048.50;5014800;28;20647;-63
2023/01/26 04:01:17;;;;;;;38.77;20.73;;;;;;;-0.43;100.00;97048.81;5012636;28;20211;-64
2023/01/26 04:09:11;;;;;;;37.87;19.53;;;;;;;-0.50;100.00;97058.06;5015082;28;20226;-64
2023/01/26 04:11:37;;;;;;;68.97;22.97;;;;;;;-0.62;100.00;97058.50;5013177;28;20172;-62
2023/01/26 04:22:13;;;;;;;39.80;19.70;;;;;;;-0.81;100.00;97048.38;5014696;28;20186;-62
2023/01/26 04:24:39;;;;;;;39.50;19.40;;;;;;;-0.87;100.00;97054.91;5014571;28;20608;-61
2023/01/26 04:27:04;;;;;;;40.97;18.37;;;;;;;-0.77;100.00;97058.22;5014942;28;20739;-61
2023/01/26 04:29:30;;;;;;;91.10;22.20;;;;;;;-0.76;100.00;97057.25;5014717;28;20210;-61
2023/01/26 04:31:55;;;;;;;57.83;20.80;;;;;;;-0.90;100.00;97055.22;5014863;28;20196;-61
2023/01/26 04:34:21;;;;;;;49.60;19.50;;;;;;;-0.71;100.00;97046.50;5014368;28;20215;-61
2023/01/26 04:36:46;;;;;;;54.47;20.40;;;;;;;-0.72;100.00;97052.59;5014917;28;20171;-61
2023/01/26 04:39:11;;;;;;;57.33;20.40;;;;;;;-1.00;100.00;97044.19;5014656;28;20181;-62
2023/01/26 04:41:37;;;;;;;110.27;20.80;;;;;;;-0.83;100.00;97040.78;5015298;28;20507;-62
2023/01/26 04:44:02;;;;;;;43.90;19.50;;;;;;;-0.78;100.00;97042.94;5015329;28;20198;-62
2023/01/26 04:46:34;;;;;;;74.00;21.63;;;;;;;-1.00;100.00;97034.72;5014549;28;20176;-61
2023/01/26 04:48:59;;;;;;;54.93;19.43;;;;;;;-0.88;100.00;97027.56;5014523;28;20172;-61
2023/01/26 04:51:25;;;;;;;157.70;22.63;;;;;;;-0.85;100.00;97027.28;5014584;28;20175;-64
2023/01/26 04:53:50;;;;;;;43.30;20.30;;;;;;;-0.77;100.00;97021.38;5014276;28;20215;-62
2023/01/26 04:56:25;;;;;;;62.53;20.53;;;;;;;-0.73;100.00;97023.53;5014610;28;20210;-62
2023/01/26 04:58:52;;;;;;;53.83;21.43;;;;;;;-0.82;100.00;97026.97;5013828;28;20258;-61
2023/01/26 05:01:18;;;;;;;140.83;22.70;;;;;;;-0.83;100.00;97020.22;5011193;28;20234;-62
2023/01/26 05:03:44;;;;;;;55.33;20.03;;;;;;;-0.85;100.00;97028.09;5012889;28;20199;-60
2023/01/26 05:06:09;;;;;;;41.80;19.50;;;;;;;-0.89;100.00;97023.38;5013773;28;20198;-63
2023/01/26 05:08:36;;;;;;;317.40;26.80;;;;;;;-0.98;100.00;97032.00;5014666;28;20176;-63
2023/01/26 05:11:02;;;;;;;47.43;20.93;;;;;;;-1.06;100.00;97019.88;5014529;28;20262;-64
2023/01/26 05:13:28;;;;;;;99.27;21.67;;;;;;;-1.07;100.00;97028.56;4996652;28;20575;-64
2023/01/26 05:15:53;;;;;;;83.97;21.80;;;;;;;-1.21;100.00;97020.53;5014520;28;20182;-64
2023/01/26 05:18:18;;;;;;;227.77;25.10;;;;;;;-1.21;100.00;97030.81;5014323;28;20241;-64
2023/01/26 05:20:44;;;;;;;232.13;23.97;;;;;;;-1.28;100.00;97028.03;4996541;28;20258;-62
2023/01/26 05:23:09;;;;;;;78.83;21.23;;;;;;;-1.32;100.00;97032.66;5013671;28;20199;-64
2023/01/26 05:25:35;;;;;;;122.87;22.40;;;;;;;-1.34;100.00;97024.28;5013583;28;20211;-64
2023/01/26 05:28:00;;;;;;;83.03;21.60;;;;;;;-1.30;100.00;97028.19;4979507;28;20533;-62
2023/01/26 05:30:26;;;;;;;72.83;24.27;;;;;;;-1.24;100.00;97029.38;5013931;28;20178;-64
2023/01/26 05:32:51;;;;;;;91.10;20.27;;;;;;;-1.23;100.00;97028.44;4995847;28;20317;-64
2023/01/26 05:35:17;;;;;;;48.20;19.73;;;;;;;-1.21;100.00;97025.69;5013657;28;20203;-62
2023/01/26 05:37:44;;;;;;;45.37;21.80;;;;;;;-1.16;100.00;97041.47;5013469;28;20175;-62
2023/01/26 05:40:11;;;;;;;81.63;23.30;;;;;;;-1.28;100.00;97040.88;5014132;28;20582;-62
2023/01/26 05:42:37;;;;;;;42.50;18.53;;;;;;;-1.33;100.00;97043.09;5013417;28;20648;-62
2023/01/26 05:45:03;;;;;;;93.53;20.27;;;;;;;-1.41;100.00;97041.25;5013466;28;20180;-62
2023/01/26 05:47:29;;;;;;;44.97;19.23;;;;;;;-1.37;100.00;97034.06;5014008;28;20180;-63
2023/01/26 05:49:54;;;;;;;39.93;19.97;;;;;;;-1.31;100.00;97039.44;5013475;28;20214;-61
2023/01/26 05:52:21;;;;;;;37.70;18.67;;;;;;;-1.47;100.00;97033.31;5013749;28;20187;-60
2023/01/26 05:54:47;;;;;;;49.67;18.97;;;;;;;-1.47;100.00;97039.28;5013482;28;20231;-62
2023/01/26 05:57:13;;;;;;;52.27;19.80;;;;;;;-1.38;100.00;97038.38;5013017;28;20221;-63
2023/01/26 05:59:38;;;;;;;52.73;20.20;;;;;;;-1.36;100.00;97041.63;5013888;28;20214;-64
2023/01/26 06:02:04;;;;;;;40.40;18.43;;;;;;;-1.33;100.00;97040.53;5011249;28;20227;-61
2023/01/26 06:04:30;;;;;;;52.67;19.57;;;;;;;-1.38;100.00;97043.53;4994962;28;20619;-63
2023/01/26 06:06:57;;;;;;;44.13;19.47;;;;;;;-1.38;100.00;97035.81;5012857;28;20263;-61
2023/01/26 06:09:23;;;;;;;42.23;19.07;;;;;;;-1.29;100.00;97049.56;5013168;28;20207;-61
2023/01/26 06:11:48;;;;;;;37.00;18.87;;;;;;;-1.41;100.00;97045.59;5012590;28;20658;-61
2023/01/26 06:14:14;;;;;;;38.93;18.67;;;;;;;-1.37;100.00;97046.91;5012894;28;20309;-63
2023/01/26 06:16:45;;;;;;;44.50;19.17;;;;;;;-1.48;100.00;97050.50;4995335;28;20194;-61
2023/01/26 06:19:11;;;;;;;34.87;18.50;;;;;;;-1.49;100.00;97037.78;5013041;28;20171;-62
2023/01/26 06:21:36;;;;;;;45.60;19.97;;;;;;;-1.54;100.00;97043.38;5012522;28;20179;-62
2023/01/26 06:24:02;;;;;;;34.67;17.70;;;;;;;-1.62;100.00;97043.31;5012818;28;20195;-62
2023/01/26 06:26:28;;;;;;;35.53;17.63;;;;;;;-1.62;100.00;97045.06;5012942;28;20655;-62
2023/01/26 06:28:53;;;;;;;51.60;20.30;;;;;;;-1.46;100.00;97037.50;5013036;28;20171;-62
2023/01/26 06:31:20;;;;;;;42.43;19.83;;;;;;;-1.38;100.00;97050.44;5012898;28;20742;-63
2023/01/26 06:33:45;;;;;;;56.67;19.37;;;;;;;-1.40;100.00;97050.59;4997089;28;20207;-62
2023/01/26 06:36:13;;;;;;;40.57;20.53;;;;;;;-1.53;100.00;97051.88;5013077;28;20167;-59
2023/01/26 06:38:43;;;;;;;37.27;18.77;;;;;;;-1.61;100.00;97052.59;5013248;28;20176;-60
2023/01/26 06:41:09;;;;;;;35.03;19.53;;;;;;;-1.69;100.00;97049.97;5011955;28;20210;-66
2023/01/26 06:43:35;;;;;;;38.37;19.43;;;;;;;-1.64;100.00;97058.03;4995228;28;20218;-62
2023/01/26 06:46:02;;;;;;;35.27;19.63;;;;;;;-1.71;100.00;97052.66;5012927;28;20213;-64
2023/01/26 06:48:30;;;;;;;40.10;18.43;;;;;;;-1.70;100.00;97050.91;4995367;28;20186;-62
2023/01/26 06:50:57;;;;;;;36.70;18.57;;;;;;;-1.60;100.00;97045.69;5012750;28;20257;-61
2023/01/26 06:53:32;;;;;;;40.40;20.13;;;;;;;-1.54;100.00;97050.25;5012532;28;20211;-64
2023/01/26 06:55:57;;;;;;;36.90;18.93;;;;;;;-1.49;100.00;97051.44;5012797;28;20244;-63
2023/01/26 06:58:23;;;;;;;42.63;21.07;;;;;;;-1.54;100.00;97048.50;5011920;28;20188;-66
2023/01/26 07:03:13;;;;;;;42.25;20.63;;;;;;;-1.57;100.00;97051.38;5010262;28;20230;-62
2023/01/26 07:05:39;;;;;;;37.43;19.03;;;;;;;-1.73;100.00;97048.63;5011773;28;20671;-62
2023/01/26 07:08:07;;;;;;;38.90;18.80;;;;;;;-1.71;100.00;97055.22;5011701;28;20687;-62
2023/01/26 07:10:34;;;;;;;39.47;19.87;;;;;;;-1.58;100.00;97048.94;4993871;28;20261;-62
2023/01/26 07:12:59;;;;;;;47.90;22.27;;;;;;;-1.42;100.00;97049.13;5011468;28;20265;-62
2023/01/26 07:15:25;;;;;;;37.23;19.57;;;;;;;-1.67;100.00;97053.97;5011781;28;20636;-60
2023/01/26 07:17:50;;;;;;;43.13;20.73;;;;;;;-1.54;100.00;97056.22;5012082;28;20266;-63
2023/01/26 07:20:15;;;;;;;39.13;19.57;;;;;;;-1.41;100.00;97056.69;5011269;28;20229;-62
2023/01/26 07:22:41;;;;;;;41.93;19.00;;;;;;;-1.43;100.00;97058.59;5012013;28;20168;-62
2023/01/26 07:25:07;;;;;;;40.20;20.97;;;;;;;-1.46;100.00;97063.22;5012347;28;20183;-62
2023/01/26 07:27:32;;;;;;;40.13;19.47;;;;;;;-1.58;100.00;97064.38;5012607;28;20164;-65
2023/01/26 07:29:58;;;;;;;35.07;18.90;;;;;;;-1.42;100.00;97064.53;5012398;28;20171;-63
2023/01/26 07:32:23;;;;;;;38.57;19.47;;;;;;;-1.28;100.00;97061.44;5012242;28;20206;-64
2023/01/26 07:34:49;;;;;;;35.77;18.80;;;;;;;-1.35;100.00;97071.53;5012259;28;20609;-63
2023/01/26 07:37:14;;;;;;;41.03;19.57;;;;;;;-1.42;100.00;97067.91;5011393;28;20159;-62
2023/01/26 07:39:39;;;;;;;32.83;17.43;;;;;;;-1.44;100.00;97066.44;5012043;28;20237;-63
2023/01/26 07:42:05;;;;;;;31.50;17.27;;;;;;;-1.40;100.00;97070.34;5012252;28;20183;-61
2023/01/26 07:44:30;;;;;;;35.07;18.77;;;;;;;-1.20;100.00;97069.25;5011711;28;20226;-61
2023/01/26 07:46:57;;;;;;;38.27;19.30;;;;;;;-1.21;100.00;97062.50;5010679;28;20209;-61
2023/01/26 07:49:22;;;;;;;40.10;20.57;;;;;;;-1.18;100.00;97061.41;5010754;28;20183;-62
2023/01/26 07:51:48;;;;;;;40.27;19.37;;;;;;;-1.48;100.00;97065.91;5012735;28;20263;-59
2023/01/26 07:54:13;;;;;;;28.37;17.03;;;;;;;-1.64;100.00;97070.88;5015103;28;20239;-61
2023/01/26 07:56:38;;;;;;;34.30;19.00;;;;;;;-1.51;100.00;97071.38;5015269;28;20164;-61
2023/01/26 07:59:04;;;;;;;33.33;18.80;;;;;;;-1.41;100.00;97064.41;5014592;28;20190;-60
2023/01/26 08:04:15;;;;;;;36.97;19.33;;;;;;;-1.47;100.00;97072.69;5013528;28;20246;-60
2023/01/26 08:06:41;;;;;;;35.93;18.17;;;;;;;-1.47;100.00;97066.72;5016943;28;20179;-58
2023/01/26 08:09:09;;;;;;;31.47;18.37;;;;;;;-1.56;100.00;97065.81;5015064;28;20167;-58
2023/01/26 08:11:34;;;;;;;34.73;18.23;;;;;;;-1.44;100.00;97062.09;4997448;28;20553;-58
2023/01/26 08:14:00;;;;;;;33.97;18.50;;;;;;;-1.45;100.00;97069.97;5014973;28;20215;-55
2023/01/26 08:16:26;;;;;;;34.43;18.30;;;;;;;-1.45;100.00;97063.06;5015119;28;20183;-55
2023/01/26 08:18:51;;;;;;;34.20;17.57;;;;;;;-1.53;100.00;97064.75;5015040;28;20645;-62
2023/01/26 08:21:18;;;;;;;33.63;18.07;;;;;;;-1.50;100.00;97064.44;5016006;28;20183;-60
2023/01/26 08:23:52;;;;;;;37.83;19.13;;;;;;;-1.44;100.00;97063.88;5015393;28;20199;-63
2023/01/26 08:26:19;;;;;;;34.13;18.00;;;;;;;-1.54;100.00;97063.13;5015191;28;20639;-61
2023/01/26 08:28:45;;;;;;;36.67;19.23;;;;;;;-1.73;100.00;97062.25;5015035;28;20171;-58
2023/01/26 08:31:19;;;;;;;37.03;19.67;;;;;;;-1.62;100.00;97055.34;5013561;28;20178;-55
2023/01/26 08:33:46;;;;;;;34.73;18.20;;;;;;;-1.54;100.00;97053.66;5007747;28;20211;-61
2023/01/26 08:36:14;;;;;;;36.43;19.33;;;;;;;-1.41;100.00;97054.13;5014592;28;20183;-57
2023/01/26 08:38:41;;;;;;;35.43;19.23;;;;;;;-1.56;100.00;97059.91;5014974;28;20226;-58
2023/01/26 08:41:07;;;;;;;35.83;18.10;;;;;;;-1.42;100.00;97057.63;5014966;28;20636;-59
2023/01/26 08:43:33;;;;;;;35.77;18.13;;;;;;;-1.49;100.00;97059.16;5014363;28;20257;-59
2023/01/26 08:45:58;;;;;;;32.33;17.43;;;;;;;-1.49;100.00;97056.59;5014182;28;20225;-57
2023/01/26 08:48:24;;;;;;;30.97;17.10;;;;;;;-1.49;100.00;97050.63;5014434;28;20175;-60
2023/01/26 08:50:58;;;;;;;28.80;16.13;;;;;;;-1.46;100.00;97065.78;4995888;28;20220;-60
2023/01/26 08:53:24;;;;;;;30.53;17.47;;;;;;;-1.42;100.00;97056.81;5014297;28;20216;-61
2023/01/26 08:55:50;;;;;;;29.83;16.50;;;;;;;-1.43;100.00;97044.91;5013897;28;20607;-60
2023/01/26 08:58:15;;;;;;;26.23;15.63;;;;;;;-1.56;100.00;97045.25;5013746;28;20667;-60
2023/01/26 09:00:41;;;;;;;27.80;16.87;;;;;;;-1.56;100.00;97052.97;4996603;28;20171;-60
2023/01/26 09:03:06;;;;;;;30.17;15.47;;;;;;;-1.41;100.00;97050.72;5010354;28;21015;-60
2023/01/26 09:05:36;;;;;;;27.73;15.33;;;;;;;-1.39;100.00;97052.19;5014151;28;20187;-62
2023/01/26 09:08:08;;;;;;;26.50;15.90;;;;;;;-1.52;100.00;97056.09;5013987;28;20282;-62
2023/01/26 09:10:33;;;;;;;23.30;15.33;;;;;;;-1.40;100.00;97050.59;5014215;28;20191;-60
2023/01/26 09:12:59;;;;;;;24.47;16.17;;;;;;;-1.31;100.00;97044.56;5014490;28;20254;-59
2023/01/26 09:15:26;;;;;;;24.97;15.70;;;;;;;-1.44;100.00;97040.72;5013920;28;20175;-60
2023/01/26 09:17:51;;;;;;;23.73;14.43;;;;;;;-1.15;100.00;97043.91;5013880;28;20198;-60
2023/01/26 09:20:17;;;;;;;26.60;15.40;;;;;;;-0.98;100.00;97044.84;5012852;28;20171;-59
2023/01/26 09:22:43;;;;;;;27.10;16.23;;;;;;;-1.06;100.00;97044.81;5009530;28;20208;-57
2023/01/26 09:25:09;;;;;;;25.10;14.17;;;;;;;-1.10;100.00;97040.88;5012772;28;20186;-61
2023/01/26 09:27:35;;;;;;;21.83;13.73;;;;;;;-1.17;100.00;97050.94;5010584;28;20179;-60
2023/01/26 09:30:01;;;;;;;23.00;14.20;;;;;;;-1.17;100.00;97047.59;5010532;28;20943;-57
2023/01/26 09:32:26;;;;;;;22.93;14.40;;;;;;;-1.12;100.00;97050.53;5011860;28;20172;-61
2023/01/26 09:34:52;;;;;;;19.07;13.20;;;;;;;-1.13;100.00;97048.91;5012471;28;20945;-61
2023/01/26 09:37:17;;;;;;;22.77;13.50;;;;;;;-1.09;100.00;97055.38;5013129;28;20644;-59
2023/01/26 09:39:43;;;;;;;22.27;14.03;;;;;;;-1.17;100.00;97063.81;4994794;28;20175;-57
2023/01/26 09:42:24;;;;;;;20.43;13.03;;;;;;;-1.22;100.00;97054.91;5013006;28;21031;-57
2023/01/26 09:44:59;;;;;;;17.73;12.93;;;;;;;-1.21;100.00;97053.97;5013356;28;20266;-56
2023/01/26 09:48:09;;;;;;;20.47;12.43;;;;;;;-1.23;100.00;97053.31;5013472;28;20178;-60
2023/01/26 09:50:58;;;;;;;22.73;14.77;;;;;;;-1.18;100.00;97063.97;4996075;28;20195;-59
2023/01/26 09:53:46;;;;;;;24.17;14.60;;;;;;;-1.18;100.00;97058.84;5013098;28;20261;-58
2023/01/26 09:56:20;;;;;;;22.30;14.33;;;;;;;-1.35;100.00;97063.00;5011992;28;20191;-61
2023/01/26 09:58:53;;;;;;;21.13;13.97;;;;;;;-1.37;100.00;97050.28;5012764;28;20549;-59
2023/01/26 10:01:35;;;;;;;25.03;16.30;;;;;;;-1.47;100.00;97057.25;5012576;28;20183;-60
2023/01/26 10:04:35;;;;;;;22.67;14.67;;;;;;;-1.46;100.00;97056.31;5009306;28;20234;-60
2023/01/26 10:07:08;;;;;;;23.43;14.53;;;;;;;-1.37;100.00;97049.47;5004315;28;20197;-58
2023/01/26 10:09:36;;;;;;;26.77;15.93;;;;;;;-1.33;100.00;97051.59;5012672;28;20267;-60
2023/01/26 10:12:14;;;;;;;26.83;16.17;;;;;;;-1.37;100.00;97045.16;5012564;28;20171;-59
2023/01/26 10:14:51;;;;;;;24.93;15.07;;;;;;;-1.33;100.00;97056.75;5011604;28;20211;-60
2023/01/26 10:17:38;;;;;;;27.03;15.93;;;;;;;-1.16;100.00;97054.34;5013150;28;20166;-60
2023/01/26 10:20:07;;;;;;;27.00;15.50;;;;;;;-1.35;100.00;97052.72;5012748;28;20194;-60
2023/01/26 10:22:43;;;;;;;28.27;16.20;;;;;;;-1.28;100.00;97049.41;5012539;28;20213;-59
2023/01/26 10:25:22;;;;;;;20.93;15.27;;;;;;;-1.36;100.00;97046.78;5002984;28;20273;-60
2023/01/26 10:27:48;;;;;;;24.70;15.50;;;;;;;-1.36;100.00;97044.19;5010265;28;20170;-60
2023/01/26 10:30:16;;;;;;;22.97;14.50;;;;;;;-1.12;100.00;97048.78;5013086;28;20167;-58
2023/01/26 10:32:43;;;;;;;22.10;13.73;;;;;;;-1.35;100.00;97048.41;5012145;28;20173;-59
2023/01/26 10:35:21;;;;;;;21.33;14.77;;;;;;;-1.24;100.00;97055.09;5012188;28;20219;-57
2023/01/26 10:37:47;;;;;;;21.03;13.90;;;;;;;-1.37;100.00;97049.47;5013034;28;20631;-56
2023/01/26 10:40:13;;;;;;;23.13;14.57;;;;;;;-1.35;100.00;97055.28;5012100;28;20186;-56
2023/01/26 10:42:39;;;;;;;19.80;13.33;;;;;;;-1.52;100.00;97051.75;5013429;28;20175;-54
2023/01/26 10:45:23;;;;;;;23.53;13.73;;;;;;;-1.33;100.00;97050.81;5013327;28;20270;-56
2023/01/26 10:48:17;;;;;;;21.67;13.80;;;;;;;-1.42;100.00;97049.94;5016535;28;20190;-59
2023/01/26 10:50:43;;;;;;;19.73;13.23;;;;;;;-1.30;100.00;97045.38;5014113;28;20532;-59
2023/01/26 10:53:29;;;;;;;18.67;11.93;;;;;;;-1.25;100.00;97045.75;5012798;28;20227;-59
2023/01/26 10:56:02;;;;;;;16.87;12.17;;;;;;;-1.22;100.00;97048.00;5013275;28;20193;-59
2023/01/26 10:58:45;;;;;;;15.53;11.27;;;;;;;-1.22;100.00;97050.59;5007109;28;20187;-57
2023/01/26 11:01:14;;;;;;;14.50;10.13;;;;;;;-1.19;100.00;97052.06;5012756;28;20191;-57
2023/01/26 11:03:40;;;;;;;13.57;10.17;;;;;;;-0.96;100.00;97046.34;5009096;28;20247;-58
2023/01/26 11:06:10;;;;;;;16.03;11.03;;;;;;;-1.02;100.00;97052.06;5012248;28;20267;-62
2023/01/26 11:08:37;;;;;;;14.63;11.83;;;;;;;-1.00;100.00;97046.75;5012353;28;20207;-59
2023/01/26 11:11:06;;;;;;;16.37;11.37;;;;;;;-0.91;100.00;97040.75;5012343;28;20183;-57
2023/01/26 11:13:32;;;;;;;16.83;12.23;;;;;;;-0.88;100.00;97040.44;5012198;28;20257;-55
2023/01/26 11:16:09;;;;;;;15.90;11.13;;;;;;;-0.78;100.00;97032.66;5012255;28;20640;-59
2023/01/26 11:18:56;;;;;;;17.73;11.83;;;;;;;-0.96;100.00;97033.47;4995013;28;20666;-62
2023/01/26 11:22:02;;;;;;;16.77;12.33;;;;;;;-1.06;100.00;97034.53;5012973;28;20230;-57
2023/01/26 11:24:38;;;;;;;14.50;11.60;;;;;;;-1.19;100.00;97032.31;4992179;28;20230;-58
2023/01/26 11:27:16;;;;;;;15.87;11.83;;;;;;;-1.28;100.00;97022.88;5014064;28;20215;-57
2023/01/26 11:30:06;;;;;;;14.53;11.37;;;;;;;-1.40;100.00;97026.66;5015978;28;20631;-55
2023/01/26 11:33:09;;;;;;;15.63;11.57;;;;;;;-1.47;100.00;97023.03;5016651;28;20260;-59
2023/01/26 11:35:46;;;;;;;16.27;13.20;;;;;;;-1.44;100.00;97018.41;5008854;28;20654;-60
2023/01/26 11:38:44;;;;;;;18.20;12.97;;;;;;;-1.42;100.00;97015.69;5015603;28;20521;-56
2023/01/26 11:41:28;;;;;;;17.83;13.10;;;;;;;-1.38;100.00;97014.44;5015602;28;20624;-59
2023/01/26 11:44:08;;;;;;;19.17;12.97;;;;;;;-1.28;100.00;97018.56;5015256;28;20207;-60
2023/01/26 11:46:47;;;;;;;19.67;13.53;;;;;;;-1.17;100.00;97012.38;5015624;28;20179;-58
2023/01/26 11:49:50;;;;;;;23.00;15.00;;;;;;;-1.27;100.00;97009.09;5015577;28;20183;-58
2023/01/26 11:52:25;;;;;;;18.93;14.23;;;;;;;-1.37;100.00;97011.75;4949429;28;20269;-58
2023/01/26 11:55:13;;;;;;;22.30;20.00;;;;;;;-1.38;100.00;97006.72;4997515;28;20209;-56
2023/01/26 11:57:45;;;;;;;16.77;13.00;;;;;;;-1.56;100.00;97000.81;5014705;28;20199;-55
2023/01/26 12:00:15;;;;;;;17.93;14.00;;;;;;;-1.62;100.00;97002.19;5015255;28;20226;-58
2023/01/26 12:02:44;;;;;;;19.80;12.93;;;;;;;-1.63;100.00;97004.91;5015232;28;20698;-57
2023/01/26 12:05:16;;;;;;;16.50;12.00;;;;;;;-1.64;100.00;96996.38;5012884;28;20234;-57
2023/01/26 12:07:55;;;;;;;20.37;11.60;;;;;;;-1.43;100.00;96996.09;5014238;28;20171;-56
2023/01/26 12:10:28;;;;;;;19.47;12.10;;;;;;;-1.49;100.00;96997.47;5015833;28;20194;-59